sensor_id;sensor_type;location;lat;lon;timestamp;pressure;altitude;pressure_sealevel;temperature;humidity
50430;BME280;36359;41.556;-8.418;2023-04-28T00:01:09;99761.69;;;18.46;74.93
50430;BME280;36359;41.556;-8.418;2023-04-28T00:03:35;99756.81;;;18.54;74.10
50430;BME280;36359;41.556;-8.418;2023-04-28T00:06:02;99765.19;;;18.79;73.10
50430;BME280;36359;41.556;-8.418;2023-04-28T00:08:28;99763.69;;;18.90;72.42
50430;BME280;36359;41.556;-8.418;2023-04-28T00:10:54;99760.31;;;18.95;73.26
50430;BME280;36359;41.556;-8.418;2023-04-28T00:13:20;99758.59;;;19.00;71.78
50430;BME280;36359;41.556;-8.418;2023-04-28T00:15:46;99759.47;;;18.88;74.00
50430;BME280;36359;41.556;-8.418;2023-04-28T00:18:11;99752.13;;;18.75;72.93
50430;BME280;36359;41.556;-8.418;2023-04-28T00:20:37;99751.50;;;18.66;73.34
50430;BME280;36359;41.556;-8.418;2023-04-28T00:23:03;99749.38;;;18.68;72.36
50430;BME280;36359;41.556;-8.418;2023-04-28T00:25:28;99744.31;;;18.65;72.46
50430;BME280;36359;41.556;-8.418;2023-04-28T00:27:54;99749.81;;;18.58;74.29
50430;BME280;36359;41.556;-8.418;2023-04-28T00:30:20;99749.84;;;18.52;74.38
50430;BME280;36359;41.556;-8.418;2023-04-28T00:32:46;99748.78;;;18.59;74.05
50430;BME280;36359;41.556;-8.418;2023-04-28T00:35:11;99747.72;;;18.54;73.47
50430;BME280;36359;41.556;-8.418;2023-04-28T00:37:38;99746.03;;;18.53;73.37
50430;BME280;36359;41.556;-8.418;2023-04-28T00:40:04;99744.56;;;18.44;75.14
50430;BME280;36359;41.556;-8.418;2023-04-28T00:42:30;99741.66;;;18.38;75.40
50430;BME280;36359;41.556;-8.418;2023-04-28T00:44:56;99732.78;;;18.23;76.67
50430;BME280;36359;41.556;-8.418;2023-04-28T00:47:22;99731.31;;;18.27;76.35
50430;BME280;36359;41.556;-8.418;2023-04-28T00:49:50;99734.28;;;18.26;76.27
50430;BME280;36359;41.556;-8.418;2023-04-28T00:52:16;99732.97;;;18.42;74.97
50430;BME280;36359;41.556;-8.418;2023-04-28T00:54:42;99722.84;;;18.42;74.35
50430;BME280;36359;41.556;-8.418;2023-04-28T00:57:09;99725.34;;;18.44;74.22
50430;BME280;36359;41.556;-8.418;2023-04-28T00:59:35;99704.22;;;18.44;74.17
50430;BME280;36359;41.556;-8.418;2023-04-28T01:02:01;99699.47;;;18.71;77.44
50430;BME280;36359;41.556;-8.418;2023-04-28T01:04:28;99699.50;;;18.65;74.31
50430;BME280;36359;41.556;-8.418;2023-04-28T01:06:55;99694.50;;;18.48;74.98
50430;BME280;36359;41.556;-8.418;2023-04-28T01:09:21;99689.97;;;17.76;78.68
50430;BME280;36359;41.556;-8.418;2023-04-28T01:11:49;99690.63;;;17.71;79.03
50430;BME280;36359;41.556;-8.418;2023-04-28T01:14:27;99694.63;;;17.95;78.44
50430;BME280;36359;41.556;-8.418;2023-04-28T01:16:53;99691.22;;;18.00;78.93
50430;BME280;36359;41.556;-8.418;2023-04-28T01:19:22;99685.31;;;18.09;78.30
50430;BME280;36359;41.556;-8.418;2023-04-28T01:21:49;99692.91;;;18.14;78.21
50430;BME280;36359;41.556;-8.418;2023-04-28T01:24:18;99695.84;;;18.32;77.67
50430;BME280;36359;41.556;-8.418;2023-04-28T01:26:44;99692.81;;;18.47;78.11
50430;BME280;36359;41.556;-8.418;2023-04-28T01:29:10;99694.03;;;18.58;77.25
50430;BME280;36359;41.556;-8.418;2023-04-28T01:31:36;99694.88;;;18.65;76.16
50430;BME280;36359;41.556;-8.418;2023-04-28T01:34:02;99690.66;;;18.63;75.60
50430;BME280;36359;41.556;-8.418;2023-04-28T01:36:28;99686.63;;;18.58;75.30
50430;BME280;36359;41.556;-8.418;2023-04-28T01:38:54;99692.38;;;18.50;76.08
50430;BME280;36359;41.556;-8.418;2023-04-28T01:41:20;99698.09;;;18.49;77.25
50430;BME280;36359;41.556;-8.418;2023-04-28T01:43:46;99682.91;;;18.39;77.81
50430;BME280;36359;41.556;-8.418;2023-04-28T01:46:12;99682.31;;;18.24;78.93
50430;BME280;36359;41.556;-8.418;2023-04-28T01:48:38;99677.94;;;18.10;81.02
50430;BME280;36359;41.556;-8.418;2023-04-28T01:51:04;99682.31;;;18.24;79.43
50430;BME280;36359;41.556;-8.418;2023-04-28T01:53:30;99676.84;;;18.24;79.94
50430;BME280;36359;41.556;-8.418;2023-04-28T01:55:56;99660.56;;;18.23;79.89
50430;BME280;36359;41.556;-8.418;2023-04-28T01:58:23;99653.41;;;18.22;80.33
50430;BME280;36359;41.556;-8.418;2023-04-28T02:00:49;99642.38;;;18.28;79.52
50430;BME280;36359;41.556;-8.418;2023-04-28T02:03:17;99650.25;;;18.18;79.70
50430;BME280;36359;41.556;-8.418;2023-04-28T02:05:42;99634.38;;;18.20;79.47
50430;BME280;36359;41.556;-8.418;2023-04-28T02:08:08;99637.31;;;18.25;81.83
50430;BME280;36359;41.556;-8.418;2023-04-28T02:10:34;99636.50;;;18.25;79.90
50430;BME280;36359;41.556;-8.418;2023-04-28T02:12:59;99637.56;;;18.17;80.34
50430;BME280;36359;41.556;-8.418;2023-04-28T02:15:25;99648.28;;;18.32;81.22
50430;BME280;36359;41.556;-8.418;2023-04-28T02:17:52;99644.22;;;18.48;81.20
50430;BME280;36359;41.556;-8.418;2023-04-28T02:20:18;99641.28;;;18.43;80.19
50430;BME280;36359;41.556;-8.418;2023-04-28T02:22:43;99647.41;;;18.38;79.27
50430;BME280;36359;41.556;-8.418;2023-04-28T02:25:09;99642.44;;;18.15;80.03
50430;BME280;36359;41.556;-8.418;2023-04-28T02:27:36;99635.72;;;17.98;81.55
50430;BME280;36359;41.556;-8.418;2023-04-28T02:30:06;99625.16;;;18.01;81.73
50430;BME280;36359;41.556;-8.418;2023-04-28T02:32:32;99623.91;;;17.97;82.22
50430;BME280;36359;41.556;-8.418;2023-04-28T02:34:58;99637.66;;;17.84;82.27
50430;BME280;36359;41.556;-8.418;2023-04-28T02:37:24;99627.97;;;17.41;85.12
50430;BME280;36359;41.556;-8.418;2023-04-28T02:39:50;99623.72;;;17.52;84.57
50430;BME280;36359;41.556;-8.418;2023-04-28T02:42:16;99620.38;;;17.30;85.59
50430;BME280;36359;41.556;-8.418;2023-04-28T02:44:42;99614.44;;;17.20;87.34
50430;BME280;36359;41.556;-8.418;2023-04-28T02:47:08;99617.16;;;16.93;90.25
50430;BME280;36359;41.556;-8.418;2023-04-28T02:49:34;99612.56;;;17.27;87.55
50430;BME280;36359;41.556;-8.418;2023-04-28T02:52:00;99616.34;;;17.26;86.10
50430;BME280;36359;41.556;-8.418;2023-04-28T02:54:26;99619.50;;;17.49;84.73
50430;BME280;36359;41.556;-8.418;2023-04-28T02:56:53;99611.94;;;17.25;86.58
50430;BME280;36359;41.556;-8.418;2023-04-28T02:59:19;99623.50;;;17.60;83.50
50430;BME280;36359;41.556;-8.418;2023-04-28T03:01:46;99625.03;;;17.30;88.01
50430;BME280;36359;41.556;-8.418;2023-04-28T03:04:12;99625.00;;;17.10;89.57
50430;BME280;36359;41.556;-8.418;2023-04-28T03:06:38;99619.31;;;17.24;89.28
50430;BME280;36359;41.556;-8.418;2023-04-28T03:09:04;99615.28;;;17.14;90.72
50430;BME280;36359;41.556;-8.418;2023-04-28T03:11:31;99603.91;;;17.37;88.99
50430;BME280;36359;41.556;-8.418;2023-04-28T03:13:57;99587.84;;;17.60;86.11
50430;BME280;36359;41.556;-8.418;2023-04-28T03:16:25;99596.47;;;17.70;85.47
50430;BME280;36359;41.556;-8.418;2023-04-28T03:18:51;99592.50;;;17.80;85.38
50430;BME280;36359;41.556;-8.418;2023-04-28T03:21:18;99581.09;;;17.69;84.11
50430;BME280;36359;41.556;-8.418;2023-04-28T03:23:44;99580.25;;;17.56;84.48
50430;BME280;36359;41.556;-8.418;2023-04-28T03:26:10;99581.78;;;17.25;85.83
50430;BME280;36359;41.556;-8.418;2023-04-28T03:28:35;99587.66;;;17.02;86.59
50430;BME280;36359;41.556;-8.418;2023-04-28T03:31:01;99595.59;;;16.64;89.75
50430;BME280;36359;41.556;-8.418;2023-04-28T03:33:28;99597.50;;;16.70;90.70
50430;BME280;36359;41.556;-8.418;2023-04-28T03:35:54;99587.88;;;16.80;89.82
50430;BME280;36359;41.556;-8.418;2023-04-28T03:38:20;99584.50;;;16.98;88.71
50430;BME280;36359;41.556;-8.418;2023-04-28T03:40:47;99590.19;;;17.17;88.11
50430;BME280;36359;41.556;-8.418;2023-04-28T03:43:32;99599.06;;;17.32;86.27
50430;BME280;36359;41.556;-8.418;2023-04-28T03:46:22;99583.66;;;17.38;84.76
50430;BME280;36359;41.556;-8.418;2023-04-28T03:48:48;99583.25;;;17.08;86.16
50430;BME280;36359;41.556;-8.418;2023-04-28T03:51:14;99590.84;;;16.92;87.28
50430;BME280;36359;41.556;-8.418;2023-04-28T03:53:40;99583.66;;;17.05;86.80
50430;BME280;36359;41.556;-8.418;2023-04-28T03:56:06;99587.88;;;16.94;88.39
50430;BME280;36359;41.556;-8.418;2023-04-28T03:58:32;99596.34;;;17.12;90.70
50430;BME280;36359;41.556;-8.418;2023-04-28T04:00:59;99598.63;;;16.95;89.65
50430;BME280;36359;41.556;-8.418;2023-04-28T04:03:25;99590.38;;;16.82;91.44
50430;BME280;36359;41.556;-8.418;2023-04-28T04:05:54;99581.78;;;16.98;90.67
50430;BME280;36359;41.556;-8.418;2023-04-28T04:08:20;99591.47;;;17.34;92.37
50430;BME280;36359;41.556;-8.418;2023-04-28T04:10:46;99593.78;;;17.31;88.88
50430;BME280;36359;41.556;-8.418;2023-04-28T04:13:12;99586.00;;;17.21;87.84
50430;BME280;36359;41.556;-8.418;2023-04-28T04:15:38;99578.84;;;17.07;87.45
50430;BME280;36359;41.556;-8.418;2023-04-28T04:18:04;99586.41;;;16.91;89.71
50430;BME280;36359;41.556;-8.418;2023-04-28T04:20:43;99582.53;;;16.72;89.80
50430;BME280;36359;41.556;-8.418;2023-04-28T04:23:09;99573.06;;;16.68;90.53
50430;BME280;36359;41.556;-8.418;2023-04-28T04:25:35;99579.88;;;16.86;90.94
50430;BME280;36359;41.556;-8.418;2023-04-28T04:28:02;99581.31;;;16.82;89.29
50430;BME280;36359;41.556;-8.418;2023-04-28T04:30:27;99574.75;;;16.69;89.88
50430;BME280;36359;41.556;-8.418;2023-04-28T04:32:53;99575.59;;;16.70;89.81
50430;BME280;36359;41.556;-8.418;2023-04-28T04:35:20;99583.84;;;16.76;89.82
50430;BME280;36359;41.556;-8.418;2023-04-28T04:37:45;99584.06;;;16.88;94.33
50430;BME280;36359;41.556;-8.418;2023-04-28T04:40:11;99591.47;;;17.01;90.41
50430;BME280;36359;41.556;-8.418;2023-04-28T04:42:44;99598.41;;;16.90;88.28
50430;BME280;36359;41.556;-8.418;2023-04-28T04:45:15;99598.69;;;16.41;91.15
50430;BME280;36359;41.556;-8.418;2023-04-28T04:47:41;99598.09;;;16.58;89.83
50430;BME280;36359;41.556;-8.418;2023-04-28T04:50:07;99596.25;;;16.66;89.96
50430;BME280;36359;41.556;-8.418;2023-04-28T04:52:33;99599.38;;;16.63;91.04
50430;BME280;36359;41.556;-8.418;2023-04-28T04:54:59;99594.28;;;16.46;91.54
50430;BME280;36359;41.556;-8.418;2023-04-28T04:57:24;99601.25;;;16.55;92.55
50430;BME280;36359;41.556;-8.418;2023-04-28T05:00:09;99598.56;;;16.62;91.37
50430;BME280;36359;41.556;-8.418;2023-04-28T05:02:36;99605.47;;;16.58;91.86
50430;BME280;36359;41.556;-8.418;2023-04-28T05:05:04;99611.19;;;16.70;91.07
50430;BME280;36359;41.556;-8.418;2023-04-28T05:07:30;99609.97;;;16.79;89.76
50430;BME280;36359;41.556;-8.418;2023-04-28T05:09:59;99617.59;;;16.84;88.59
50430;BME280;36359;41.556;-8.418;2023-04-28T05:12:25;99616.72;;;16.76;88.99
50430;BME280;36359;41.556;-8.418;2023-04-28T05:14:51;99625.13;;;16.75;89.61
50430;BME280;36359;41.556;-8.418;2023-04-28T05:17:20;99629.94;;;16.66;90.70
50430;BME280;36359;41.556;-8.418;2023-04-28T05:19:46;99635.66;;;16.71;90.82
50430;BME280;36359;41.556;-8.418;2023-04-28T05:22:13;99646.59;;;16.71;91.06
50430;BME280;36359;41.556;-8.418;2023-04-28T05:24:39;99635.94;;;16.83;91.70
50430;BME280;36359;41.556;-8.418;2023-04-28T05:27:05;99642.66;;;16.94;90.39
50430;BME280;36359;41.556;-8.418;2023-04-28T05:29:30;99643.53;;;16.94;89.98
50430;BME280;36359;41.556;-8.418;2023-04-28T05:31:56;99650.28;;;16.92;89.32
50430;BME280;36359;41.556;-8.418;2023-04-28T05:34:23;99649.22;;;16.86;89.84
50430;BME280;36359;41.556;-8.418;2023-04-28T05:36:49;99656.13;;;16.82;90.45
50430;BME280;36359;41.556;-8.418;2023-04-28T05:39:17;99657.34;;;16.73;91.17
50430;BME280;36359;41.556;-8.418;2023-04-28T05:41:43;99661.91;;;16.52;92.91
50430;BME280;36359;41.556;-8.418;2023-04-28T05:44:09;99666.31;;;16.47;94.62
50430;BME280;36359;41.556;-8.418;2023-04-28T05:46:35;99667.38;;;16.46;94.19
50430;BME280;36359;41.556;-8.418;2023-04-28T05:49:02;99675.13;;;16.35;94.75
50430;BME280;36359;41.556;-8.418;2023-04-28T05:51:32;99674.47;;;16.33;95.04
50430;BME280;36359;41.556;-8.418;2023-04-28T05:53:58;99680.47;;;16.50;94.44
50430;BME280;36359;41.556;-8.418;2023-04-28T05:56:26;99691.44;;;16.64;92.34
50430;BME280;36359;41.556;-8.418;2023-04-28T05:58:52;99698.41;;;16.66;90.38
50430;BME280;36359;41.556;-8.418;2023-04-28T06:01:18;99703.66;;;16.61;91.42
50430;BME280;36359;41.556;-8.418;2023-04-28T06:03:45;99705.28;;;16.49;92.89
50430;BME280;36359;41.556;-8.418;2023-04-28T06:06:11;99709.53;;;16.58;92.18
50430;BME280;36359;41.556;-8.418;2023-04-28T06:08:37;99706.63;;;16.60;90.29
50430;BME280;36359;41.556;-8.418;2023-04-28T06:11:04;99706.94;;;16.43;91.63
50430;BME280;36359;41.556;-8.418;2023-04-28T06:13:30;99699.94;;;16.34;93.11
50430;BME280;36359;41.556;-8.418;2023-04-28T06:15:56;99706.94;;;16.43;93.01
50430;BME280;36359;41.556;-8.418;2023-04-28T06:18:22;99702.69;;;16.34;92.59
50430;BME280;36359;41.556;-8.418;2023-04-28T06:20:49;99708.25;;;16.47;92.43
50430;BME280;36359;41.556;-8.418;2023-04-28T06:23:14;99713.47;;;16.77;91.96
50430;BME280;36359;41.556;-8.418;2023-04-28T06:25:45;99717.31;;;17.02;89.58
50430;BME280;36359;41.556;-8.418;2023-04-28T06:28:11;99734.88;;;16.73;90.06
50430;BME280;36359;41.556;-8.418;2023-04-28T06:30:38;99745.22;;;16.71;91.69
50430;BME280;36359;41.556;-8.418;2023-04-28T06:33:04;99748.09;;;16.91;91.91
50430;BME280;36359;41.556;-8.418;2023-04-28T06:35:29;99755.75;;;17.16;89.63
50430;BME280;36359;41.556;-8.418;2023-04-28T06:37:55;99759.56;;;17.21;87.58
50430;BME280;36359;41.556;-8.418;2023-04-28T06:40:21;99762.53;;;17.40;88.41
50430;BME280;36359;41.556;-8.418;2023-04-28T06:42:51;99761.28;;;17.56;86.49
50430;BME280;36359;41.556;-8.418;2023-04-28T06:45:22;99766.16;;;17.60;85.40
50430;BME280;36359;41.556;-8.418;2023-04-28T06:47:48;99765.09;;;17.48;85.23
50430;BME280;36359;41.556;-8.418;2023-04-28T06:50:14;99758.56;;;17.62;86.03
50430;BME280;36359;41.556;-8.418;2023-04-28T06:52:40;99766.22;;;17.80;86.24
50430;BME280;36359;41.556;-8.418;2023-04-28T06:55:07;99774.00;;;17.97;84.52
50430;BME280;36359;41.556;-8.418;2023-04-28T06:57:34;99772.06;;;17.57;84.67
50430;BME280;36359;41.556;-8.418;2023-04-28T07:00:00;99774.38;;;17.60;85.62
50430;BME280;36359;41.556;-8.418;2023-04-28T07:02:26;99777.53;;;17.51;86.50
50430;BME280;36359;41.556;-8.418;2023-04-28T07:04:52;99778.38;;;17.64;86.38
50430;BME280;36359;41.556;-8.418;2023-04-28T07:07:18;99781.97;;;17.52;86.06
50430;BME280;36359;41.556;-8.418;2023-04-28T07:09:43;99787.88;;;17.42;86.59
50430;BME280;36359;41.556;-8.418;2023-04-28T07:12:09;99788.72;;;17.56;87.15
50430;BME280;36359;41.556;-8.418;2023-04-28T07:14:39;99774.00;;;17.77;86.15
50430;BME280;36359;41.556;-8.418;2023-04-28T07:17:05;99776.75;;;17.97;86.21
50430;BME280;36359;41.556;-8.418;2023-04-28T07:19:30;99769.59;;;17.89;84.05
50430;BME280;36359;41.556;-8.418;2023-04-28T07:21:56;99775.91;;;17.96;83.81
50430;BME280;36359;41.556;-8.418;2023-04-28T07:24:23;99784.97;;;17.97;84.44
50430;BME280;36359;41.556;-8.418;2023-04-28T07:26:49;99784.97;;;17.97;83.53
50430;BME280;36359;41.556;-8.418;2023-04-28T07:29:17;99775.91;;;18.03;83.71
50430;BME280;36359;41.556;-8.418;2023-04-28T07:31:43;99783.06;;;18.30;85.21
50430;BME280;36359;41.556;-8.418;2023-04-28T07:34:09;99790.56;;;18.81;84.12
50430;BME280;36359;41.556;-8.418;2023-04-28T07:36:35;99785.81;;;19.09;82.37
50430;BME280;36359;41.556;-8.418;2023-04-28T07:39:01;99793.28;;;19.40;81.49
50430;BME280;36359;41.556;-8.418;2023-04-28T07:41:27;99808.16;;;19.64;80.73
50430;BME280;36359;41.556;-8.418;2023-04-28T07:43:53;99802.31;;;19.85;79.10
50430;BME280;36359;41.556;-8.418;2023-04-28T07:46:19;99810.38;;;20.12;77.39
50430;BME280;36359;41.556;-8.418;2023-04-28T07:48:45;99812.63;;;20.22;76.91
50430;BME280;36359;41.556;-8.418;2023-04-28T07:51:11;99812.66;;;19.90;73.42
50430;BME280;36359;41.556;-8.418;2023-04-28T07:53:36;99809.13;;;19.38;74.71
50430;BME280;36359;41.556;-8.418;2023-04-28T07:56:03;99799.09;;;19.18;78.64
50430;BME280;36359;41.556;-8.418;2023-04-28T07:58:30;99803.66;;;18.93;74.98
50430;BME280;36359;41.556;-8.418;2023-04-28T08:00:56;99807.97;;;19.20;80.22
50430;BME280;36359;41.556;-8.418;2023-04-28T08:03:21;99811.25;;;19.42;74.81
50430;BME280;36359;41.556;-8.418;2023-04-28T08:05:47;99813.38;;;19.40;76.51
50430;BME280;36359;41.556;-8.418;2023-04-28T08:08:13;99816.44;;;19.19;74.69
50430;BME280;36359;41.556;-8.418;2023-04-28T08:10:39;99820.66;;;19.15;75.46
50430;BME280;36359;41.556;-8.418;2023-04-28T08:13:06;99829.59;;;19.10;77.12
50430;BME280;36359;41.556;-8.418;2023-04-28T08:15:32;99832.75;;;19.14;76.76
50430;BME280;36359;41.556;-8.418;2023-04-28T08:17:58;99829.03;;;19.40;77.98
50430;BME280;36359;41.556;-8.418;2023-04-28T08:20:27;99842.81;;;19.78;76.69
50430;BME280;36359;41.556;-8.418;2023-04-28T08:22:55;99838.75;;;20.12;75.08
50430;BME280;36359;41.556;-8.418;2023-04-28T08:25:21;99850.66;;;20.31;73.59
50430;BME280;36359;41.556;-8.418;2023-04-28T08:27:47;99862.56;;;20.00;72.56
50430;BME280;36359;41.556;-8.418;2023-04-28T08:30:13;99863.31;;;20.14;72.31
50430;BME280;36359;41.556;-8.418;2023-04-28T08:32:38;99868.41;;;20.10;74.34
50430;BME280;36359;41.556;-8.418;2023-04-28T08:35:05;99865.72;;;20.29;74.38
50430;BME280;36359;41.556;-8.418;2023-04-28T08:37:31;99873.59;;;20.00;72.98
50430;BME280;36359;41.556;-8.418;2023-04-28T08:39:57;99869.13;;;19.67;74.76
50430;BME280;36359;41.556;-8.418;2023-04-28T08:42:34;99881.56;;;19.25;79.29
50430;BME280;36359;41.556;-8.418;2023-04-28T08:45:02;99891.31;;;19.72;78.05
50430;BME280;36359;41.556;-8.418;2023-04-28T08:47:36;99896.75;;;20.17;75.42
50430;BME280;36359;41.556;-8.418;2023-04-28T08:50:11;99890.50;;;20.35;74.79
50430;BME280;36359;41.556;-8.418;2023-04-28T08:52:38;99882.72;;;19.49;78.75
50430;BME280;36359;41.556;-8.418;2023-04-28T08:55:09;99897.38;;;19.88;76.89
50430;BME280;36359;41.556;-8.418;2023-04-28T08:57:43;99904.28;;;20.29;75.48
50430;BME280;36359;41.556;-8.418;2023-04-28T09:00:09;99890.97;;;20.51;73.84
50430;BME280;36359;41.556;-8.418;2023-04-28T09:02:36;99884.28;;;20.40;75.12
50430;BME280;36359;41.556;-8.418;2023-04-28T09:05:12;99896.75;;;20.74;73.37
50430;BME280;36359;41.556;-8.418;2023-04-28T09:07:39;99896.22;;;20.84;72.86
50430;BME280;36359;41.556;-8.418;2023-04-28T09:10:15;99898.34;;;20.82;72.75
50430;BME280;36359;41.556;-8.418;2023-04-28T09:12:43;99895.91;;;20.74;72.45
50430;BME280;36359;41.556;-8.418;2023-04-28T09:15:10;99901.25;;;20.87;72.73
50430;BME280;36359;41.556;-8.418;2023-04-28T09:17:50;99922.88;;;21.08;71.68
50430;BME280;36359;41.556;-8.418;2023-04-28T09:20:24;99921.22;;;21.26;71.25
50430;BME280;36359;41.556;-8.418;2023-04-28T09:22:51;99916.94;;;21.30;70.93
50430;BME280;36359;41.556;-8.418;2023-04-28T09:25:18;99922.84;;;21.33;71.24
50430;BME280;36359;41.556;-8.418;2023-04-28T09:27:46;99932.72;;;21.41;69.62
50430;BME280;36359;41.556;-8.418;2023-04-28T09:30:12;99934.50;;;21.54;70.09
50430;BME280;36359;41.556;-8.418;2023-04-28T09:32:38;99933.25;;;21.68;69.87
50430;BME280;36359;41.556;-8.418;2023-04-28T09:35:03;99937.84;;;21.74;69.07
50430;BME280;36359;41.556;-8.418;2023-04-28T09:37:33;99938.38;;;21.83;69.41
50430;BME280;36359;41.556;-8.418;2023-04-28T09:40:07;99953.06;;;21.95;68.37
50430;BME280;36359;41.556;-8.418;2023-04-28T09:47:33;99939.63;;;22.29;66.22
50430;BME280;36359;41.556;-8.418;2023-04-28T09:50:02;99939.06;;;22.27;65.50
50430;BME280;36359;41.556;-8.418;2023-04-28T09:52:28;99930.47;;;22.17;66.98
50430;BME280;36359;41.556;-8.418;2023-04-28T09:54:55;99932.78;;;22.20;66.99
50430;BME280;36359;41.556;-8.418;2023-04-28T09:57:22;99946.44;;;22.15;67.68
50430;BME280;36359;41.556;-8.418;2023-04-28T09:59:50;99935.81;;;22.12;66.87
50430;BME280;36359;41.556;-8.418;2023-04-28T10:02:17;99942.81;;;22.14;67.25
50430;BME280;36359;41.556;-8.418;2023-04-28T10:04:46;99943.34;;;22.23;68.03
50430;BME280;36359;41.556;-8.418;2023-04-28T10:07:13;99940.84;;;22.21;66.92
50430;BME280;36359;41.556;-8.418;2023-04-28T10:09:39;99931.47;;;22.22;68.18
50430;BME280;36359;41.556;-8.418;2023-04-28T10:12:15;99929.16;;;22.19;68.59
50430;BME280;36359;41.556;-8.418;2023-04-28T10:14:41;99925.81;;;22.29;64.06
50430;BME280;36359;41.556;-8.418;2023-04-28T10:17:09;99931.75;;;22.33;67.29
50430;BME280;36359;41.556;-8.418;2023-04-28T10:19:36;99934.97;;;22.30;67.42
50430;BME280;36359;41.556;-8.418;2023-04-28T10:22:23;99939.78;;;22.34;66.37
50430;BME280;36359;41.556;-8.418;2023-04-28T10:27:40;99957.22;;;22.47;61.59
50430;BME280;36359;41.556;-8.418;2023-04-28T10:30:13;99958.06;;;22.47;64.56
50430;BME280;36359;41.556;-8.418;2023-04-28T10:32:40;99962.91;;;22.52;65.71
50430;BME280;36359;41.556;-8.418;2023-04-28T10:38:13;99968.34;;;22.82;63.71
50430;BME280;36359;41.556;-8.418;2023-04-28T10:40:46;99971.88;;;23.24;60.38
50430;BME280;36359;41.556;-8.418;2023-04-28T10:43:33;99976.22;;;23.20;63.20
50430;BME280;36359;41.556;-8.418;2023-04-28T10:46:02;99983.44;;;23.21;61.75
50430;BME280;36359;41.556;-8.418;2023-04-28T10:58:42;99979.09;;;23.13;60.61
50430;BME280;36359;41.556;-8.418;2023-04-28T11:03:54;99993.56;;;23.16;61.90
50430;BME280;36359;41.556;-8.418;2023-04-28T11:06:37;99995.69;;;23.25;60.62
50430;BME280;36359;41.556;-8.418;2023-04-28T11:17:06;99996.66;;;23.19;61.33
50430;BME280;36359;41.556;-8.418;2023-04-28T11:19:36;99991.72;;;23.45;61.17
50430;BME280;36359;41.556;-8.418;2023-04-28T11:22:05;99992.44;;;23.52;60.87
50430;BME280;36359;41.556;-8.418;2023-04-28T11:24:36;99993.66;;;23.56;59.91
50430;BME280;36359;41.556;-8.418;2023-04-28T11:27:03;99989.91;;;23.62;58.30
50430;BME280;36359;41.556;-8.418;2023-04-28T11:29:38;99991.34;;;23.53;61.16
50430;BME280;36359;41.556;-8.418;2023-04-28T11:32:05;99990.50;;;23.52;60.22
50430;BME280;36359;41.556;-8.418;2023-04-28T11:34:32;99985.94;;;23.46;61.58
50430;BME280;36359;41.556;-8.418;2023-04-28T11:36:58;99981.22;;;23.70;57.86
50430;BME280;36359;41.556;-8.418;2023-04-28T11:39:26;99976.88;;;23.74;60.25
50430;BME280;36359;41.556;-8.418;2023-04-28T11:41:56;99981.44;;;23.80;58.57
50430;BME280;36359;41.556;-8.418;2023-04-28T11:44:24;99980.41;;;23.23;61.64
50430;BME280;36359;41.556;-8.418;2023-04-28T11:46:52;99973.19;;;23.45;60.92
50430;BME280;36359;41.556;-8.418;2023-04-28T11:49:20;99966.75;;;24.09;58.07
50430;BME280;36359;41.556;-8.418;2023-04-28T11:51:49;99971.88;;;23.88;58.89
50430;BME280;36359;41.556;-8.418;2023-04-28T11:54:23;99976.41;;;23.54;60.56
50430;BME280;36359;41.556;-8.418;2023-04-28T11:56:50;99977.50;;;24.05;55.25
50430;BME280;36359;41.556;-8.418;2023-04-28T11:59:16;99971.72;;;24.07;55.93
50430;BME280;36359;41.556;-8.418;2023-04-28T12:01:51;99964.78;;;24.21;55.99
50430;BME280;36359;41.556;-8.418;2023-04-28T12:07:11;99959.47;;;24.19;55.91
50430;BME280;36359;41.556;-8.418;2023-04-28T12:09:45;99962.75;;;24.16;55.29
50430;BME280;36359;41.556;-8.418;2023-04-28T12:12:15;99956.47;;;24.21;55.28
50430;BME280;36359;41.556;-8.418;2023-04-28T12:14:57;99959.47;;;24.19;55.81
50430;BME280;36359;41.556;-8.418;2023-04-28T12:17:28;99959.94;;;23.71;57.44
50430;BME280;36359;41.556;-8.418;2023-04-28T12:19:55;99970.31;;;23.92;57.93
50430;BME280;36359;41.556;-8.418;2023-04-28T12:22:21;99953.63;;;23.75;58.09
50430;BME280;36359;41.556;-8.418;2023-04-28T12:25:07;99956.53;;;24.09;55.66
50430;BME280;36359;41.556;-8.418;2023-04-28T12:27:34;99936.31;;;23.97;54.14
50430;BME280;36359;41.556;-8.418;2023-04-28T12:30:01;99941.25;;;24.23;54.72
50430;BME280;36359;41.556;-8.418;2023-04-28T12:32:37;99966.09;;;24.47;55.60
50430;BME280;36359;41.556;-8.418;2023-04-28T12:35:04;99943.34;;;24.45;55.06
50430;BME280;36359;41.556;-8.418;2023-04-28T12:37:30;99955.41;;;24.39;57.05
50430;BME280;36359;41.556;-8.418;2023-04-28T12:40:00;99932.03;;;24.35;54.84
50430;BME280;36359;41.556;-8.418;2023-04-28T12:42:28;99938.28;;;24.42;55.19
50430;BME280;36359;41.556;-8.418;2023-04-28T12:44:54;99940.00;;;24.60;55.13
50430;BME280;36359;41.556;-8.418;2023-04-28T12:47:20;99936.81;;;24.22;54.44
50430;BME280;36359;41.556;-8.418;2023-04-28T12:49:46;99945.66;;;24.36;54.51
50430;BME280;36359;41.556;-8.418;2023-04-28T12:52:14;99917.16;;;24.41;55.33
50430;BME280;36359;41.556;-8.418;2023-04-28T12:54:40;99944.34;;;24.73;49.88
50430;BME280;36359;41.556;-8.418;2023-04-28T12:57:12;99906.38;;;24.56;50.39
50430;BME280;36359;41.556;-8.418;2023-04-28T12:59:38;99902.84;;;24.78;52.09
50430;BME280;36359;41.556;-8.418;2023-04-28T13:02:04;99931.03;;;25.08;50.08
50430;BME280;36359;41.556;-8.418;2023-04-28T13:04:30;99937.06;;;25.39;48.03
50430;BME280;36359;41.556;-8.418;2023-04-28T13:06:57;99916.09;;;25.09;49.08
50430;BME280;36359;41.556;-8.418;2023-04-28T13:09:23;99940.59;;;25.34;49.79
50430;BME280;36359;41.556;-8.418;2023-04-28T13:11:49;99924.41;;;25.09;40.48
50430;BME280;36359;41.556;-8.418;2023-04-28T13:14:18;99894.22;;;24.96;47.27
50430;BME280;36359;41.556;-8.418;2023-04-28T13:16:44;99933.78;;;25.42;43.19
50430;BME280;36359;41.556;-8.418;2023-04-28T13:19:11;99914.56;;;25.19;42.05
50430;BME280;36359;41.556;-8.418;2023-04-28T13:21:39;99899.59;;;25.03;43.21
50430;BME280;36359;41.556;-8.418;2023-04-28T13:24:07;99930.06;;;24.98;45.00
50430;BME280;36359;41.556;-8.418;2023-04-28T13:26:33;99929.72;;;24.94;46.90